Time;durP1;ratioP1;P1;durP2;ratioP2;P2;SDS_P1;SDS_P2;PMS_P1;PMS_P2;Temp;Humidity;BMP_temperature;BMP_pressure;BME280_temperature;BME280_humidity;BME280_pressure;Samples;Min_cycle;Max_cycle;Signal;HPM_P1;HPM_P2
2023/07/14 00:01:33;;;;;;;5.50;2.47;;;21.00;99.90;;;;;;5054650;28;20083;-64
2023/07/14 00:04:00;;;;;;;6.53;2.47;;;20.90;99.90;;;;;;5054756;28;20036;-64
2023/07/14 00:06:26;;;;;;;7.57;2.78;;;20.80;99.90;;;;;;5054783;28;20099;-64
2023/07/14 00:08:52;;;;;;;4.72;2.10;;;20.70;99.90;;;;;;5054777;28;20033;-64
2023/07/14 00:11:24;;;;;;;6.03;2.10;;;20.80;99.90;;;;;;5036685;28;20029;-64
2023/07/14 00:13:51;;;;;;;7.05;2.72;;;20.60;99.90;;;;;;5054511;28;20483;-64
2023/07/14 00:16:28;;;;;;;4.32;2.25;;;20.50;99.90;;;;;;5054643;28;20029;-64
2023/07/14 00:18:54;;;;;;;8.15;2.53;;;20.50;99.90;;;;;;5054718;28;20017;-64
2023/07/14 00:21:25;;;;;;;5.82;2.53;;;20.40;99.90;;;;;;5054590;28;20386;-65
2023/07/14 00:23:57;;;;;;;4.88;2.20;;;20.20;99.90;;;;;;5054461;28;20029;-64
2023/07/14 00:26:23;;;;;;;7.88;2.25;;;20.10;99.90;;;;;;5020368;28;20570;-64
2023/07/14 00:28:50;;;;;;;3.03;2.50;;;20.10;99.90;;;;;;5054604;28;20108;-64
2023/07/14 00:31:19;;;;;;;3.85;1.90;;;20.10;99.90;;;;;;5036859;28;20040;-64
2023/07/14 00:33:49;;;;;;;4.15;2.45;;;20.10;99.90;;;;;;5054392;28;20380;-64
2023/07/14 00:36:17;;;;;;;6.65;2.25;;;20.00;99.90;;;;;;5054738;28;20056;-64
2023/07/14 00:38:43;;;;;;;3.45;2.08;;;20.00;99.90;;;;;;5020000;28;20083;-64
2023/07/14 00:41:23;;;;;;;4.15;1.95;;;20.00;99.90;;;;;;5054397;28;20060;-64
2023/07/14 00:43:51;;;;;;;3.13;1.95;;;20.10;99.90;;;;;;5054329;28;20025;-64
2023/07/14 00:46:29;;;;;;;3.63;2.25;;;20.10;99.90;;;;;;5036504;28;20048;-64
2023/07/14 00:48:59;;;;;;;6.47;2.17;;;20.00;99.90;;;;;;5054263;28;20755;-64
2023/07/14 00:51:29;;;;;;;3.53;1.98;;;20.00;99.90;;;;;;5054242;28;20041;-64
2023/07/14 00:53:56;;;;;;;5.97;2.42;;;20.00;99.90;;;;;;5036415;28;20086;-64
2023/07/14 00:56:39;;;;;;;4.25;2.20;;;20.00;99.90;;;;;;5068361;28;20024;-64
2023/07/14 00:59:15;;;;;;;5.10;2.53;;;19.90;99.90;;;;;;5074275;28;20040;-64
2023/07/14 01:02:19;;;;;;;3.50;1.95;;;19.70;99.90;;;;;;5060258;28;20449;-64
2023/07/14 01:04:52;;;;;;;4.30;2.58;;;19.70;99.90;;;;;;5060166;28;20047;-64
2023/07/14 01:07:23;;;;;;;4.65;2.45;;;19.80;99.90;;;;;;5060395;28;20029;-64
2023/07/14 01:09:50;;;;;;;;;;;19.70;99.90;;;;;;5060656;28;20028;-64
2023/07/14 01:12:20;;;;;;;4.38;2.30;;;19.60;99.90;;;;;;5077924;28;20585;-64
2023/07/14 01:14:50;;;;;;;4.97;2.03;;;19.60;99.90;;;;;;5060162;28;20039;-64
2023/07/14 01:17:18;;;;;;;3.35;1.90;;;19.50;99.90;;;;;;5078070;28;20036;-64
2023/07/14 01:20:01;;;;;;;5.20;2.38;;;19.50;99.90;;;;;;5060023;28;20029;-64
2023/07/14 01:23:01;;;;;;;6.35;2.10;;;19.40;99.90;;;;;;5077911;28;20108;-64
2023/07/14 01:25:36;;;;;;;3.92;2.47;;;19.30;99.90;;;;;;5077967;28;20154;-63
2023/07/14 01:28:04;;;;;;;4.38;2.05;;;19.30;99.90;;;;;;5059773;28;20032;-64
2023/07/14 01:30:32;;;;;;;4.38;2.13;;;19.30;99.90;;;;;;5059863;28;20047;-64
2023/07/14 01:32:58;;;;;;;2.30;1.85;;;19.30;99.90;;;;;;5059655;28;20043;-64
2023/07/14 01:35:31;;;;;;;4.45;1.90;;;19.30;99.90;;;;;;5060000;28;20035;-64
2023/07/14 01:37:57;;;;;;;4.70;2.00;;;19.30;99.90;;;;;;5077673;28;20056;-64
2023/07/14 01:40:24;;;;;;;6.55;2.38;;;19.30;99.90;;;;;;5077574;28;20032;-64
2023/07/14 01:42:56;;;;;;;2.75;1.80;;;19.20;99.90;;;;;;5077558;28;20029;-64
2023/07/14 01:45:25;;;;;;;5.13;2.58;;;19.20;99.90;;;;;;5059568;28;20035;-64
2023/07/14 01:47:55;;;;;;;5.40;2.05;;;19.20;99.90;;;;;;5077452;28;20088;-64
2023/07/14 01:50:24;;;;;;;3.63;2.20;;;19.20;99.90;;;;;;5077493;28;20029;-64
2023/07/14 01:52:54;;;;;;;3.67;2.45;;;19.20;99.90;;;;;;5059359;28;20032;-64
2023/07/14 01:55:21;;;;;;;3.83;2.22;;;19.20;99.90;;;;;;5053948;28;20116;-64
2023/07/14 01:57:51;;;;;;;6.28;2.40;;;19.10;99.90;;;;;;5022634;28;20095;-64
2023/07/14 02:00:18;;;;;;;3.85;2.38;;;19.10;99.90;;;;;;5039430;28;20096;-64
2023/07/14 02:02:46;;;;;;;4.88;1.95;;;19.10;99.90;;;;;;5057382;28;20047;-64
2023/07/14 02:05:33;;;;;;;3.20;2.10;;;19.10;99.90;;;;;;5057106;28;20478;-64
2023/07/14 02:08:03;;;;;;;4.80;2.42;;;19.10;99.90;;;;;;5057079;28;20102;-64
2023/07/14 02:10:31;;;;;;;3.47;2.47;;;19.10;99.90;;;;;;5038441;28;20040;-64
2023/07/14 02:12:57;;;;;;;4.55;2.80;;;19.20;99.90;;;;;;5056977;28;20025;-64
2023/07/14 02:15:26;;;;;;;3.53;2.60;;;19.10;99.90;;;;;;5039142;28;20029;-64
2023/07/14 02:17:54;;;;;;;7.03;2.72;;;19.10;99.90;;;;;;5022595;28;20079;-64
2023/07/14 02:20:24;;;;;;;6.15;2.40;;;19.10;99.90;;;;;;5039084;28;20033;-64
2023/07/14 02:22:53;;;;;;;3.88;2.85;;;19.10;99.90;;;;;;5056775;28;20052;-64
2023/07/14 02:25:21;;;;;;;5.03;2.47;;;19.00;99.90;;;;;;5038890;28;20356;-63
2023/07/14 02:27:47;;;;;;;8.77;2.97;;;19.00;99.90;;;;;;5056726;28;20037;-63
2023/07/14 02:30:19;;;;;;;4.45;2.58;;;18.80;99.90;;;;;;5056652;28;20021;-64
2023/07/14 02:32:52;;;;;;;4.70;2.88;;;18.80;99.90;;;;;;5038688;28;20140;-63
2023/07/14 02:35:20;;;;;;;7.90;2.88;;;18.80;99.90;;;;;;5038684;28;20372;-64
2023/07/14 02:38:05;;;;;;;4.65;2.63;;;18.80;99.90;;;;;;5056461;28;20039;-64
2023/07/14 02:40:45;;;;;;;5.75;2.83;;;18.80;99.90;;;;;;5038600;28;20059;-64
2023/07/14 02:43:15;;;;;;;5.13;2.55;;;18.90;99.90;;;;;;5056751;28;20043;-64
2023/07/14 02:45:55;;;;;;;5.70;2.95;;;18.90;99.90;;;;;;5022018;28;20036;-63
2023/07/14 02:48:34;;;;;;;3.85;2.40;;;18.90;99.90;;;;;;5056424;28;20029;-64
2023/07/14 02:51:00;;;;;;;4.85;2.58;;;18.90;99.90;;;;;;5056489;28;20052;-64
2023/07/14 02:53:26;;;;;;;5.10;3.20;;;19.00;99.90;;;;;;5038250;28;20091;-64
2023/07/14 02:55:51;;;;;;;6.18;2.60;;;18.90;99.90;;;;;;5066038;28;20016;-64
2023/07/14 02:58:17;;;;;;;3.15;2.30;;;19.00;99.90;;;;;;5058000;28;20041;-64
2023/07/14 03:00:44;;;;;;;3.88;2.90;;;19.00;99.90;;;;;;5058050;28;20043;-64
2023/07/14 03:03:10;;;;;;;3.45;2.80;;;19.00;99.90;;;;;;5076222;28;20390;-64
2023/07/14 03:05:36;;;;;;;4.10;2.42;;;18.90;99.90;;;;;;5075962;28;20028;-64
2023/07/14 03:08:07;;;;;;;4.35;3.22;;;18.90;99.90;;;;;;5057993;28;20033;-64
2023/07/14 03:10:33;;;;;;;12.95;4.50;;;19.00;99.90;;;;;;5075808;28;20082;-64
2023/07/14 03:13:00;;;;;;;5.43;2.17;;;19.00;99.90;;;;;;5057576;28;20093;-64
2023/07/14 03:15:26;;;;;;;9.30;2.60;;;19.00;99.90;;;;;;5057943;28;20033;-64
2023/07/14 03:17:52;;;;;;;4.75;2.70;;;19.00;99.90;;;;;;5075913;28;20020;-64
2023/07/14 03:20:18;;;;;;;3.33;2.35;;;19.00;99.90;;;;;;5075627;28;20474;-64
2023/07/14 03:22:44;;;;;;;6.43;2.78;;;18.90;99.90;;;;;;5056779;28;20036;-64
2023/07/14 03:25:10;;;;;;;5.10;2.53;;;19.00;99.90;;;;;;5075827;28;20051;-64
2023/07/14 03:27:36;;;;;;;4.50;2.58;;;19.00;99.90;;;;;;5075495;28;20033;-64
2023/07/14 03:30:03;;;;;;;5.38;2.17;;;19.00;99.90;;;;;;5057676;28;20432;-64
2023/07/14 03:32:28;;;;;;;3.72;2.40;;;18.90;99.90;;;;;;5075450;28;20107;-64
2023/07/14 03:34:54;;;;;;;5.10;2.53;;;18.90;99.90;;;;;;5075358;28;20071;-64
2023/07/14 03:37:20;;;;;;;5.15;2.75;;;18.80;99.90;;;;;;5057426;28;20028;-64
2023/07/14 03:39:46;;;;;;;4.68;2.40;;;18.80;99.90;;;;;;5075256;28;20032;-64
2023/07/14 03:42:14;;;;;;;5.20;2.95;;;18.90;99.90;;;;;;5057416;28;20032;-64
2023/07/14 03:44:39;;;;;;;7.03;3.33;;;18.80;99.90;;;;;;5075345;28;20059;-64
2023/07/14 03:47:06;;;;;;;6.75;3.08;;;18.80;99.90;;;;;;5075193;28;20028;-64
2023/07/14 03:49:34;;;;;;;8.70;3.75;;;18.80;99.90;;;;;;5075189;28;20486;-64
2023/07/14 03:52:00;;;;;;;16.00;10.82;;;18.80;99.90;;;;;;5075110;28;20024;-64
2023/07/14 03:54:26;;;;;;;8.15;4.47;;;18.90;99.90;;;;;;5057147;28;20043;-64
2023/07/14 03:56:52;;;;;;;10.13;4.78;;;18.90;99.90;;;;;;5038896;28;20033;-64
2023/07/14 03:59:18;;;;;;;15.98;6.45;;;18.90;99.90;;;;;;5037036;28;20045;-64
2023/07/14 04:01:44;;;;;;;7.60;3.22;;;19.00;99.90;;;;;;5055026;28;20025;-64
2023/07/14 04:04:11;;;;;;;6.55;2.70;;;19.00;99.90;;;;;;5054925;28;20033;-64
2023/07/14 04:06:36;;;;;;;8.98;3.17;;;19.00;99.90;;;;;;5054993;28;20048;-64
2023/07/14 04:09:02;;;;;;;5.82;2.85;;;19.10;99.90;;;;;;5036696;28;20058;-64
2023/07/14 04:11:33;;;;;;;7.45;2.97;;;19.20;99.90;;;;;;5054613;28;20063;-64
2023/07/14 04:13:59;;;;;;;6.60;2.88;;;19.20;99.90;;;;;;5054708;28;20353;-64
2023/07/14 04:16:26;;;;;;;7.38;2.85;;;19.30;99.90;;;;;;5054880;28;20021;-64
2023/07/14 04:18:52;;;;;;;9.40;3.55;;;19.40;99.90;;;;;;5054706;28;20032;-64
2023/07/14 04:21:24;;;;;;;7.25;3.53;;;19.50;99.90;;;;;;5036881;28;20032;-64
2023/07/14 04:23:51;;;;;;;11.30;2.67;;;19.60;99.90;;;;;;5054557;28;20082;-64
2023/07/14 04:26:17;;;;;;;7.85;2.83;;;19.60;99.90;;;;;;5054459;28;20037;-64
2023/07/14 04:28:43;;;;;;;4.75;2.40;;;19.60;99.90;;;;;;5054517;28;20049;-64
2023/07/14 04:31:09;;;;;;;4.60;2.45;;;19.60;99.90;;;;;;5036899;28;20048;-64
2023/07/14 04:33:35;;;;;;;6.50;2.83;;;19.80;99.90;;;;;;5036408;28;20029;-64
2023/07/14 04:36:01;;;;;;;5.78;2.58;;;19.80;99.90;;;;;;5054332;28;20037;-64
2023/07/14 04:38:28;;;;;;;8.88;3.22;;;19.90;99.90;;;;;;5054506;28;20029;-64
2023/07/14 04:40:54;;;;;;;4.60;2.30;;;19.80;99.90;;;;;;5054368;28;20028;-64
2023/07/14 04:43:22;;;;;;;4.05;2.10;;;19.80;99.90;;;;;;5054473;28;20033;-64
2023/07/14 04:45:50;;;;;;;6.88;2.33;;;19.80;99.90;;;;;;5054157;28;20037;-64
2023/07/14 04:48:17;;;;;;;5.25;2.08;;;19.80;99.90;;;;;;5054249;28;20037;-64
2023/07/14 04:50:45;;;;;;;4.68;2.38;;;19.90;99.90;;;;;;5054090;28;20033;-64
2023/07/14 04:53:12;;;;;;;11.68;2.67;;;19.90;99.90;;;;;;5054169;28;20420;-64
2023/07/14 04:55:42;;;;;;;10.38;2.40;;;20.10;99.90;;;;;;5062188;28;20493;-64
2023/07/14 04:58:11;;;;;;;5.15;2.55;;;20.10;99.90;;;;;;5074027;28;20553;-64
2023/07/14 05:00:38;;;;;;;4.57;2.17;;;20.10;99.90;;;;;;5074301;28;20032;-64
2023/07/14 05:03:05;;;;;;;8.90;2.70;;;20.20;99.90;;;;;;5074101;28;20040;-64
2023/07/14 05:05:32;;;;;;;4.50;2.20;;;20.30;99.90;;;;;;5074159;28;20525;-64
2023/07/14 05:08:00;;;;;;;7.55;2.30;;;20.40;99.90;;;;;;5074285;28;20028;-64
2023/07/14 05:10:27;;;;;;;74.65;19.77;;;20.40;99.90;;;;;;5074133;28;20037;-64
2023/07/14 05:12:55;;;;;;;135.25;30.80;;;20.50;99.90;;;;;;5074195;28;20144;-64
2023/07/14 05:15:21;;;;;;;171.98;38.72;;;20.60;99.90;;;;;;5074077;28;20107;-64
2023/07/14 05:17:48;;;;;;;177.93;39.05;;;20.60;99.90;;;;;;5073889;28;20059;-64
2023/07/14 05:20:16;;;;;;;181.45;40.70;;;20.70;99.90;;;;;;5074019;28;20021;-64
2023/07/14 05:22:46;;;;;;;115.85;28.42;;;20.80;99.90;;;;;;5071992;28;20040;-64
2023/07/14 05:25:13;;;;;;;57.47;16.30;;;20.80;99.90;;;;;;5073670;28;20120;-64
2023/07/14 05:27:41;;;;;;;155.48;36.92;;;20.80;99.90;;;;;;5074566;28;20129;-64
2023/07/14 05:30:14;;;;;;;124.40;32.28;;;20.90;99.90;;;;;;5068805;28;20028;-66
2023/07/14 05:32:43;;;;;;;155.73;40.78;;;21.10;99.90;;;;;;5054416;28;20061;-65
2023/07/14 05:35:11;;;;;;;174.20;45.50;;;20.90;99.90;;;;;;5053865;28;20029;-65
2023/07/14 05:37:37;;;;;;;168.45;43.13;;;21.00;99.90;;;;;;5052534;28;20028;-65
2023/07/14 05:40:10;;;;;;;164.93;43.30;;;21.20;99.90;;;;;;5053537;28;20024;-65
2023/07/14 05:42:37;;;;;;;149.30;41.90;;;21.30;99.90;;;;;;5053721;28;20391;-65
2023/07/14 05:45:03;;;;;;;65.53;21.50;;;21.50;99.90;;;;;;5053459;28;20036;-65
2023/07/14 05:47:30;;;;;;;20.30;7.45;;;21.50;99.90;;;;;;5057391;28;20059;-65
2023/07/14 05:49:56;;;;;;;16.40;5.00;;;21.60;99.90;;;;;;5057375;28;20171;-65
2023/07/14 05:52:22;;;;;;;8.32;3.13;;;21.70;99.90;;;;;;5057178;28;20056;-65
2023/07/14 05:54:48;;;;;;;9.52;3.42;;;21.70;99.90;;;;;;5058121;28;20466;-65
2023/07/14 05:57:15;;;;;;;7.47;2.75;;;21.80;99.90;;;;;;5077097;28;20102;-65
2023/07/14 05:59:41;;;;;;;12.27;3.95;;;21.90;99.90;;;;;;5076930;28;20150;-65
2023/07/14 06:02:14;;;;;;;11.02;2.70;;;21.90;99.90;;;;;;5077195;28;20020;-65
2023/07/14 06:04:41;;;;;;;19.45;4.88;;;22.00;99.90;;;;;;5059122;28;20036;-65
2023/07/14 06:07:08;;;;;;;5.82;2.00;;;22.10;99.90;;;;;;5077249;28;20031;-65
2023/07/14 06:09:38;;;;;;;5.10;2.10;;;22.30;99.90;;;;;;5077095;28;20032;-65
2023/07/14 06:12:06;;;;;;;5.88;2.47;;;22.30;99.90;;;;;;5077038;28;20028;-65
2023/07/14 06:14:36;;;;;;;2.92;1.80;;;22.40;99.90;;;;;;5076786;28;20020;-65
2023/07/14 06:17:03;;;;;;;4.35;2.13;;;22.40;99.90;;;;;;5076848;28;20025;-65
2023/07/14 06:19:29;;;;;;;7.15;2.47;;;22.60;99.90;;;;;;5076833;28;20033;-63
2023/07/14 06:21:56;;;;;;;6.38;1.95;;;22.60;99.90;;;;;;5076841;28;20107;-64
2023/07/14 06:24:23;;;;;;;5.40;1.67;;;22.60;99.90;;;;;;5076798;28;20412;-64
2023/07/14 06:26:50;;;;;;;3.40;2.00;;;22.70;99.90;;;;;;5069005;28;20462;-64
2023/07/14 06:29:16;;;;;;;5.75;2.13;;;22.80;99.90;;;;;;5056286;28;20035;-64
2023/07/14 06:31:42;;;;;;;7.45;1.85;;;23.00;99.90;;;;;;5057143;28;20075;-64
2023/07/14 06:34:08;;;;;;;4.00;1.48;;;23.10;99.90;;;;;;5065382;28;20025;-63
2023/07/14 06:36:34;;;;;;;5.70;1.40;;;23.20;99.90;;;;;;5076874;28;20082;-62
2023/07/14 06:39:00;;;;;;;10.98;1.70;;;23.30;99.90;;;;;;5076942;28;20501;-63
2023/07/14 06:41:26;;;;;;;4.60;2.40;;;23.30;99.90;;;;;;5074055;28;20104;-62
2023/07/14 06:43:54;;;;;;;6.97;1.73;;;23.20;99.90;;;;;;5066893;28;20528;-63
2023/07/14 06:46:20;;;;;;;5.95;1.40;;;23.20;99.90;;;;;;5076882;28;20125;-62
2023/07/14 06:48:46;;;;;;;2.50;1.30;;;23.20;99.90;;;;;;5075149;28;20028;-63
2023/07/14 06:51:13;;;;;;;7.53;1.63;;;23.30;99.90;;;;;;5076845;28;20035;-62
2023/07/14 06:53:40;;;;;;;7.63;1.50;;;23.30;99.90;;;;;;5076597;28;20377;-62
2023/07/14 06:56:07;;;;;;;4.78;1.73;;;23.20;99.90;;;;;;5073953;28;20040;-63
2023/07/14 06:58:34;;;;;;;11.43;2.03;;;23.40;99.90;;;;;;5075878;28;20045;-63
2023/07/14 07:01:01;;;;;;;6.07;1.92;;;23.30;99.90;;;;;;5074787;28;20410;-62
2023/07/14 07:03:27;;;;;;;3.83;1.35;;;23.30;99.90;;;;;;5075529;28;20230;-63
2023/07/14 07:05:54;;;;;;;3.83;1.20;;;23.40;99.90;;;;;;5074859;28;20450;-63
2023/07/14 07:08:20;;;;;;;2.20;1.40;;;23.40;99.90;;;;;;5075909;28;20032;-62
2023/07/14 07:10:47;;;;;;;4.35;1.40;;;23.50;99.90;;;;;;5075406;28;20036;-63
2023/07/14 07:13:14;;;;;;;4.93;1.65;;;23.50;99.90;;;;;;5076121;28;20032;-63
2023/07/14 07:15:40;;;;;;;4.28;1.60;;;23.70;99.90;;;;;;5076044;28;20663;-62
2023/07/14 07:18:07;;;;;;;7.30;2.55;;;23.80;99.90;;;;;;5074940;28;20082;-63
2023/07/14 07:20:36;;;;;;;4.95;1.83;;;23.80;99.90;;;;;;5076012;28;20042;-63
2023/07/14 07:23:02;;;;;;;3.07;1.80;;;23.70;99.90;;;;;;5075933;28;20037;-62
2023/07/14 07:25:28;;;;;;;6.68;2.30;;;24.00;99.90;;;;;;5075770;28;20498;-62
2023/07/14 07:27:54;;;;;;;5.45;2.28;;;24.10;99.90;;;;;;5075846;28;20155;-63
2023/07/14 07:30:20;;;;;;;4.38;1.40;;;24.20;99.90;;;;;;5075828;28;20048;-63
2023/07/14 07:32:46;;;;;;;3.75;2.10;;;24.30;99.90;;;;;;5075384;28;20039;-62
2023/07/14 07:35:13;;;;;;;3.90;1.83;;;24.20;99.90;;;;;;5075703;28;20025;-62
2023/07/14 07:37:39;;;;;;;4.13;1.98;;;24.10;99.90;;;;;;5057549;28;20035;-62
2023/07/14 07:40:07;;;;;;;6.90;1.83;;;24.20;99.90;;;;;;5075405;28;20055;-62
2023/07/14 07:42:34;;;;;;;3.20;1.75;;;24.30;99.90;;;;;;5057250;28;20063;-63
2023/07/14 07:45:00;;;;;;;3.30;1.55;;;24.50;99.90;;;;;;5073219;28;20056;-63
2023/07/14 07:47:27;;;;;;;4.07;1.92;;;24.50;99.90;;;;;;5075529;28;20490;-63
2023/07/14 07:49:53;;;;;;;5.57;1.83;;;24.50;99.90;;;;;;5068530;28;20032;-62
2023/07/14 07:52:20;;;;;;;4.70;1.80;;;24.80;99.90;;;;;;5060145;28;20036;-62
2023/07/14 07:54:46;;;;;;;2.67;1.65;;;24.90;99.90;;;;;;5037300;28;20064;-63
2023/07/14 07:57:12;;;;;;;6.10;2.45;;;25.00;99.90;;;;;;5074399;28;20035;-62
2023/07/14 07:59:39;;;;;;;3.75;2.20;;;25.00;99.90;;;;;;5070450;28;20478;-63
2023/07/14 08:02:07;;;;;;;6.95;2.97;;;25.20;99.90;;;;;;5063986;28;20043;-63
2023/07/14 08:04:36;;;;;;;3.70;1.98;;;25.50;99.90;;;;;;5070393;28;20370;-62
2023/07/14 08:07:10;;;;;;;4.28;2.15;;;25.70;99.90;;;;;;5053789;28;20106;-62
2023/07/14 08:09:36;;;;;;;5.20;2.63;;;25.90;99.60;;;;;;5060415;28;20489;-62
2023/07/14 08:12:03;;;;;;;8.45;3.25;;;25.90;98.80;;;;;;5074051;28;20028;-63
2023/07/14 08:14:29;;;;;;;8.25;2.72;;;25.80;98.90;;;;;;5067133;28;20028;-63
2023/07/14 08:16:55;;;;;;;5.13;2.30;;;26.00;98.50;;;;;;5090055;28;20081;-63
2023/07/14 08:19:22;;;;;;;5.05;2.15;;;25.90;97.70;;;;;;5074478;28;20025;-63
2023/07/14 08:21:48;;;;;;;9.50;2.42;;;26.10;98.50;;;;;;5074506;28;20039;-62
2023/07/14 08:24:17;;;;;;;9.02;2.55;;;26.00;97.40;;;;;;5073049;28;20029;-63
2023/07/14 08:26:43;;;;;;;19.13;5.60;;;26.20;96.80;;;;;;5052544;28;20029;-62
2023/07/14 08:29:09;;;;;;;10.35;2.55;;;26.50;96.40;;;;;;5053801;28;20028;-62
2023/07/14 08:31:35;;;;;;;3.17;2.25;;;26.40;97.00;;;;;;5053683;28;20033;-62
2023/07/14 08:34:01;;;;;;;6.72;3.38;;;26.80;96.60;;;;;;5053538;28;20067;-63
2023/07/14 08:36:27;;;;;;;6.38;2.38;;;26.80;94.70;;;;;;5053710;28;20032;-63
2023/07/14 08:38:54;;;;;;;5.78;1.90;;;27.00;94.90;;;;;;5053849;28;20029;-62
2023/07/14 08:41:30;;;;;;;19.23;5.40;;;26.50;94.60;;;;;;5066664;28;20034;-64
2023/07/14 08:43:58;;;;;;;6.60;2.38;;;26.40;94.30;;;;;;5070413;28;20051;-63
2023/07/14 08:46:43;;;;;;;5.00;2.63;;;26.30;97.10;;;;;;5055893;28;20036;-62
2023/07/14 08:49:20;;;;;;;8.55;2.78;;;26.90;95.50;;;;;;5062171;28;20036;-63
2023/07/14 08:52:00;;;;;;;7.32;2.53;;;27.10;94.50;;;;;;5063797;28;20440;-63
2023/07/14 08:54:33;;;;;;;30.27;5.45;;;27.30;93.10;;;;;;5071848;28;20035;-62
2023/07/14 08:56:59;;;;;;;9.07;3.42;;;26.10;96.10;;;;;;5068401;28;20025;-63
2023/07/14 08:59:38;;;;;;;5.90;2.40;;;26.80;94.80;;;;;;5071280;28;20033;-62
2023/07/14 09:02:36;;;;;;;252.13;154.45;;;27.20;94.30;;;;;;5071170;28;20067;-63
2023/07/14 09:05:08;;;;;;;12.35;6.50;;;27.90;95.00;;;;;;5073061;28;20032;-64
2023/07/14 09:07:36;;;;;;;4.95;3.10;;;28.30;91.60;;;;;;5073516;28;20029;-62
2023/07/14 09:10:07;;;;;;;4.82;3.53;;;28.50;90.10;;;;;;5072269;28;20028;-62
2023/07/14 09:13:10;;;;;;;9.70;3.75;;;28.80;88.70;;;;;;5072205;28;20056;-62
2023/07/14 09:15:36;;;;;;;5.80;3.47;;;28.90;83.10;;;;;;5051296;28;20449;-62
2023/07/14 09:18:19;;;;;;;9.10;4.30;;;29.20;81.90;;;;;;5070568;28;20101;-63
2023/07/14 09:21:15;;;;;;;5.32;3.78;;;29.40;81.60;;;;;;5073489;28;20040;-62
2023/07/14 09:23:47;;;;;;;4.78;3.88;;;29.80;80.20;;;;;;5075160;28;20036;-63
2023/07/14 09:26:24;;;;;;;7.57;4.10;;;29.70;78.00;;;;;;5072179;28;20016;-63
2023/07/14 09:28:51;;;;;;;6.68;3.85;;;29.80;80.20;;;;;;5056474;28;20070;-63
2023/07/14 09:31:37;;;;;;;4.38;3.35;;;30.20;80.90;;;;;;5084156;28;20046;-63
2023/07/14 09:34:22;;;;;;;7.30;3.20;;;30.50;77.00;;;;;;5095901;28;20181;-62
2023/07/14 09:36:49;;;;;;;8.10;4.47;;;30.90;73.30;;;;;;5057490;28;20497;-62
2023/07/14 09:42:57;;;;;;;7.80;3.65;;;30.70;71.00;;;;;;5045642;28;20087;-62
2023/07/14 09:45:30;;;;;;;5.93;4.03;;;31.40;71.20;;;;;;5067229;28;20112;-63
2023/07/14 09:48:31;;;;;;;7.07;4.03;;;31.60;65.00;;;;;;5071827;28;20024;-63
2023/07/14 09:51:23;;;;;;;9.70;4.03;;;31.30;65.20;;;;;;5073905;28;20020;-63
2023/07/14 09:54:00;;;;;;;6.05;4.10;;;31.10;64.80;;;;;;5074398;28;20485;-62
2023/07/14 09:57:01;;;;;;;6.15;3.88;;;31.90;66.60;;;;;;5074952;28;20031;-63
2023/07/14 09:59:28;;;;;;;6.38;4.65;;;32.10;63.70;;;;;;5074584;28;20029;-63
2023/07/14 10:02:00;;;;;;;5.82;4.32;;;31.60;62.60;;;;;;5076145;28;20052;-63
2023/07/14 10:04:30;;;;;;;10.80;5.10;;;31.50;63.10;;;;;;5073280;28;20385;-62
2023/07/14 10:07:25;;;;;;;15.07;5.95;;;31.60;60.90;;;;;;5073759;28;20027;-63
2023/07/14 10:10:08;;;;;;;8.80;5.95;;;32.00;62.90;;;;;;5065310;28;20036;-63
2023/07/14 10:12:40;;;;;;;10.75;5.28;;;32.60;60.20;;;;;;5076597;28;20455;-63
2023/07/14 10:15:32;;;;;;;10.45;5.10;;;32.60;61.40;;;;;;5058763;28;20056;-62
2023/07/14 10:18:05;;;;;;;7.05;5.10;;;33.00;59.50;;;;;;5075967;28;20466;-63
2023/07/14 10:20:33;;;;;;;12.60;6.45;;;33.00;56.80;;;;;;5076855;28;20042;-63
2023/07/14 10:23:03;;;;;;;8.27;4.95;;;32.80;56.40;;;;;;5076329;28;20021;-63
2023/07/14 10:25:30;;;;;;;14.02;5.47;;;33.00;57.60;;;;;;5077020;28;20051;-63
2023/07/14 10:28:19;;;;;;;9.38;4.97;;;33.50;57.50;;;;;;5076993;28;20440;-63
2023/07/14 10:31:00;;;;;;;14.05;5.63;;;32.90;55.10;;;;;;5058368;28;20037;-63
2023/07/14 10:33:38;;;;;;;10.57;4.65;;;33.20;54.50;;;;;;5074610;28;20036;-63
2023/07/14 10:36:21;;;;;;;8.30;5.18;;;33.80;53.50;;;;;;5076047;28;20028;-63
2023/07/14 10:39:14;;;;;;;9.02;5.93;;;33.40;50.00;;;;;;5076137;28;20106;-63
2023/07/14 10:41:45;;;;;;;6.97;5.38;;;33.00;52.30;;;;;;5060353;28;20082;-63
2023/07/14 10:44:22;;;;;;;8.52;5.57;;;33.20;53.10;;;;;;5055807;28;20055;-63
2023/07/14 10:50:58;;;;;;;22.40;7.55;;;33.20;52.90;;;;;;5028940;28;20048;-63
2023/07/14 10:53:36;;;;;;;11.85;6.90;;;33.50;52.20;;;;;;5070378;28;20028;-63
2023/07/14 10:56:09;;;;;;;11.20;6.82;;;33.60;53.60;;;;;;5083528;28;20021;-63
2023/07/14 10:58:44;;;;;;;9.90;7.15;;;33.50;49.30;;;;;;5066925;28;20412;-63
2023/07/14 11:01:24;;;;;;;15.57;7.80;;;33.80;53.40;;;;;;5096081;28;20058;-63
2023/07/14 11:03:58;;;;;;;9.50;7.25;;;34.30;50.40;;;;;;5095512;28;20097;-63
2023/07/14 11:06:28;;;;;;;11.35;7.60;;;33.90;48.70;;;;;;5095813;28;20027;-63
2023/07/14 11:08:55;;;;;;;12.32;9.93;;;33.30;49.00;;;;;;5081403;28;20035;-63
2023/07/14 11:11:32;;;;;;;8.63;6.95;;;33.70;51.10;;;;;;5075281;28;20047;-63
2023/07/14 11:14:17;;;;;;;13.10;8.05;;;33.60;49.10;;;;;;5074548;28;20028;-63
2023/07/14 11:16:46;;;;;;;18.10;8.18;;;33.80;47.20;;;;;;5075348;28;20108;-63
2023/07/14 11:19:34;;;;;;;14.00;9.10;;;33.60;46.70;;;;;;5075240;28;20035;-63
2023/07/14 11:22:21;;;;;;;16.67;8.65;;;33.90;48.10;;;;;;5075325;28;20070;-62
2023/07/14 11:25:31;;;;;;;18.25;9.05;;;34.60;47.60;;;;;;5075003;28;20070;-63
2023/07/14 11:28:11;;;;;;;10.90;7.78;;;33.00;45.30;;;;;;4993317;28;20023;-63
2023/07/14 11:30:41;;;;;;;11.02;6.57;;;33.20;47.80;;;;;;4993296;28;20473;-61
2023/07/14 11:33:33;;;;;;;8.75;6.97;;;33.60;50.30;;;;;;4986793;28;20097;-63
2023/07/14 11:36:17;;;;;;;12.00;8.10;;;34.30;48.60;;;;;;4972097;28;20039;-64
2023/07/14 11:38:46;;;;;;;12.50;7.75;;;34.30;47.10;;;;;;4973717;28;20042;-63
2023/07/14 11:41:14;;;;;;;9.52;7.57;;;34.30;47.70;;;;;;4984879;28;20058;-63
2023/07/14 11:43:41;;;;;;;10.82;7.72;;;34.70;47.40;;;;;;4992332;28;20030;-64
2023/07/14 11:46:13;;;;;;;10.93;7.18;;;34.80;45.80;;;;;;4992957;28;20040;-64
2023/07/14 11:48:58;;;;;;;14.10;7.82;;;34.00;46.50;;;;;;4975421;28;20076;-63
2023/07/14 11:51:48;;;;;;;11.02;6.28;;;34.70;47.50;;;;;;4991532;28;20504;-63
2023/07/14 11:54:49;;;;;;;16.52;7.35;;;34.40;45.80;;;;;;4990425;28;20034;-64
2023/07/14 11:57:17;;;;;;;7.95;6.50;;;34.00;47.10;;;;;;4973361;28;20061;-64
2023/07/14 11:59:58;;;;;;;8.02;6.28;;;34.20;45.40;;;;;;5070514;28;20037;-64
2023/07/14 12:02:38;;;;;;;7.25;6.45;;;33.90;47.80;;;;;;5071267;28;20421;-63
2023/07/14 12:05:13;;;;;;;7.60;5.22;;;33.40;47.90;;;;;;5071130;28;20039;-63
2023/07/14 12:08:04;;;;;;;10.88;5.88;;;34.10;50.90;;;;;;5074485;28;20496;-63
2023/07/14 12:10:42;;;;;;;11.75;6.75;;;34.40;49.30;;;;;;5073147;28;20471;-63
2023/07/14 12:13:27;;;;;;;5.70;5.07;;;35.30;47.50;;;;;;5075140;28;20059;-63
2023/07/14 12:15:55;;;;;;;8.20;5.00;;;35.40;49.40;;;;;;5073232;28;20467;-63
2023/07/14 12:18:32;;;;;;;14.95;6.45;;;35.10;46.00;;;;;;5071097;28;20411;-63
2023/07/14 12:21:16;;;;;;;7.32;4.75;;;34.60;46.10;;;;;;5071908;28;20074;-64
2023/07/14 12:23:48;;;;;;;8.23;4.68;;;35.00;48.90;;;;;;5072212;28;20466;-64
2023/07/14 12:26:35;;;;;;;4.97;4.15;;;35.00;46.70;;;;;;5067370;28;20036;-64
2023/07/14 12:29:14;;;;;;;8.00;5.32;;;34.70;45.30;;;;;;5069208;28;20040;-64
2023/07/14 12:31:41;;;;;;;5.30;3.90;;;34.90;50.60;;;;;;5074347;28;20024;-63
2023/07/14 12:34:18;;;;;;;5.13;4.18;;;34.90;46.80;;;;;;5080800;28;20060;-63
2023/07/14 12:36:45;;;;;;;9.27;5.00;;;35.00;47.00;;;;;;5067180;28;20378;-64
2023/07/14 12:39:11;;;;;;;6.78;4.60;;;35.00;48.80;;;;;;5062301;28;20455;-63
2023/07/14 12:41:47;;;;;;;13.13;5.00;;;35.10;45.80;;;;;;5072152;28;20056;-64
2023/07/14 12:44:34;;;;;;;7.10;4.05;;;34.40;48.80;;;;;;5074428;28;20052;-63
2023/07/14 12:47:00;;;;;;;7.07;4.30;;;34.00;46.60;;;;;;5073841;28;20027;-64
2023/07/14 12:49:46;;;;;;;4.97;3.90;;;34.40;48.60;;;;;;5074207;28;20029;-64
2023/07/14 12:52:29;;;;;;;9.48;5.35;;;34.10;46.90;;;;;;5074326;28;20112;-63
2023/07/14 12:55:03;;;;;;;8.45;4.60;;;33.60;48.00;;;;;;5076598;28;20500;-64
2023/07/14 12:57:32;;;;;;;5.65;3.60;;;34.20;49.10;;;;;;5078425;28;20102;-63
2023/07/14 12:59:58;;;;;;;5.85;3.67;;;34.30;49.20;;;;;;5092725;28;20059;-61
2023/07/14 13:02:24;;;;;;;7.63;3.60;;;34.60;48.70;;;;;;5080870;28;20021;-62
2023/07/14 13:04:52;;;;;;;2.58;2.15;;;34.70;48.10;;;;;;5081378;28;20059;-61
2023/07/14 13:07:29;;;;;;;7.47;3.08;;;35.00;46.00;;;;;;5073190;28;20060;-62
2023/07/14 13:10:25;;;;;;;7.53;3.58;;;35.10;46.00;;;;;;5091571;28;20422;-62
2023/07/14 13:12:55;;;;;;;10.95;5.00;;;34.80;47.10;;;;;;5101320;28;20358;-62